Rejestracja

Wszystkie dane podawane są w czasie UTC za wyjątkiem miejsc gdzie jest jednoznacznie podane, że jest inaczej. Dane podawane w serwisie mają charakter informacyjny!!!
Informacje w sprawie dostępu do serwisu pod numerem tel. +48 261-828-138
Informacja dla żołnierzy i pracowników wojska: Prosimy o niezwłoczną zmianę adresu e-mail w profilu użytkownika na pocztę w domenie @ron.mil.pl

Aktualna Pogoda
 
Pogoda w Polsce
17°C Szczecin 18°C Suwałki 22°C Warszawa 18°C Poznan
19°C Opole 20°C Kraków 21°C Rzeszów
Więcej miast w Polsce

Pogoda w Europie
18°C Berlin 16°C Paryz 14°C Bruksela 11°C Oslo
20°C Praga 17°C Zagrzeb
Więcej miast w Europie

Metary wojskowe test
METAR EPBC 270700Z 24004KT CAVOK 23/11 Q1009=
METAR EPCE 270730Z 21006KT 180V250 7000 -RA SCT004 OVC047 14/13 Q1005 RERA RMK 135 096 8/4=
SPECI EPDA 270737Z 22006KT 170V270 3000 +SHRA SCT013CB OVC026 14/13 Q1004 RMK 140 094 8/4=
METAR EPDE 270730Z 17008KT CAVOK 22/13 Q1011 RMK 217 058 3/2=
METAR EPIR 270730Z 22012KT CAVOK 20/10 Q1007 RMK 201 051 7/3=
METAR EPKS 270730Z 20008KT 160V250 CAVOK 19/12 Q1008 RMK 192 062 5/5=
METAR COR EPLK 270700Z /////KT CAVOK 19/13 Q1010 RMK 194 066 3/2=
METAR EPLY 270730Z 22008KT CAVOK 21/12 Q1009 RMK 208 057 4/4=
METAR EPMB 270730Z 23010KT 9999 BKN080 18/12 Q1006 RMK 181 068 6/6=
METAR EPMI 270730Z 22006KT 9999 BKN080 17/10 Q1006 RMK 172 063 7/7=
METAR EPMM 270730Z 22010KT 170V260 CAVOK 21/14 Q1010 RMK 212 063 1/1=
METAR EPNA 270700Z 24004KT 9999 BKN080 17/10 Q1006 RMK 167 065 7/7=
METAR EPOK 270730Z 23010KT 190V250 9999 -RA OVC057 15/12 Q1004 RMK 149 085 8/8=
METAR EPPR 270730Z 23006KT 9999 BKN065 16/13 Q1005 RMK 162 080 7/7=
METAR EPPW 270730Z 21010KT CAVOK 20/12 Q1008 RMK 199 059 6/3=
METAR EPSN 270730Z 24009KT 9999 OVC033 16/11 Q1005 RMK 161 071 8/8=
METAR EPTM 270730Z 18004KT CAVOK 21/13 Q1010 RMK 207 060 2/2=


 

Prawa autorskie©2007 SSH SZ RP. Wszelkie prawa zastrzeżone.